Time;durP1;ratioP1;P1;durP2;ratioP2;P2;SDS_P1;SDS_P2;PMS_P1;PMS_P2;Temp;Humidity;BMP_temperature;BMP_pressure;BME280_temperature;BME280_humidity;BME280_pressure;Samples;Min_cycle;Max_cycle;Signal;HPM_P1;HPM_P2
2023/10/12 00:02:50;;;;;;;15.02;8.00;;;;;;;14.07;100.00;99124.34;4484990;31;20835;-77
2023/10/12 00:05:19;;;;;;;13.00;7.90;;;;;;;14.25;100.00;99122.53;4484780;31;20092;-76
2023/10/12 00:07:49;;;;;;;14.80;8.05;;;;;;;14.14;100.00;99115.69;4484810;31;20616;-76
2023/10/12 00:12:44;;;;;;;16.48;8.43;;;;;;;14.06;100.00;99112.97;4484925;31;20084;-76
2023/10/12 00:18:03;;;;;;;14.93;7.80;;;;;;;14.02;100.00;99101.91;4469119;32;20116;-77
2023/10/12 00:23:02;;;;;;;14.43;8.90;;;;;;;14.07;100.00;99098.81;4469157;32;20119;-76
2023/10/12 00:25:34;;;;;;;12.73;8.30;;;;;;;13.96;100.00;99094.59;4467900;32;20141;-76
2023/10/12 00:28:03;;;;;;;15.38;9.00;;;;;;;13.96;100.00;99089.34;4469156;32;20584;-77
2023/10/12 00:30:31;;;;;;;15.85;8.65;;;;;;;14.00;100.00;99090.69;4468661;32;20093;-77
2023/10/12 00:32:59;;;;;;;14.77;9.38;;;;;;;13.93;100.00;99087.00;4469096;32;20093;-76
2023/10/12 00:35:27;;;;;;;15.57;9.32;;;;;;;13.90;100.00;99089.09;4468589;32;20073;-76
2023/10/12 00:37:55;;;;;;;23.50;9.00;;;;;;;13.88;100.00;99089.25;4469104;32;20507;-76
2023/10/12 00:40:32;;;;;;;;;;;;;;;13.77;100.00;99087.66;4469605;32;20145;-76
2023/10/12 00:43:01;;;;;;;17.48;8.60;;;;;;;13.87;100.00;99081.50;4469239;32;19984;-76
2023/10/12 00:45:29;;;;;;;18.20;9.55;;;;;;;13.80;100.00;99081.28;4468940;32;20120;-76
2023/10/12 00:48:07;;;;;;;15.55;9.65;;;;;;;13.64;100.00;99076.66;4468702;32;20120;-77
2023/10/12 00:50:36;;;;;;;14.05;10.10;;;;;;;13.62;100.00;99062.84;4468814;32;20525;-76
2023/10/12 00:53:30;;;;;;;16.92;10.73;;;;;;;13.57;100.00;99071.19;4469287;32;20157;-76
2023/10/12 00:56:02;;;;;;;19.67;11.20;;;;;;;13.61;100.00;99067.28;4483229;32;20080;-76
2023/10/12 00:58:31;;;;;;;20.58;10.63;;;;;;;13.52;100.00;99064.72;4484356;31;20797;-76
2023/10/12 01:01:03;;;;;;;14.45;9.85;;;;;;;13.53;100.00;99071.63;4484205;31;20091;-76
2023/10/12 01:03:37;;;;;;;18.80;11.43;;;;;;;13.57;100.00;99076.44;4484398;31;20215;-76
2023/10/12 01:08:43;;;;;;;18.75;10.70;;;;;;;13.19;100.00;99066.97;4484293;31;20411;-76
2023/10/12 01:11:23;;;;;;;18.95;11.12;;;;;;;13.17;100.00;99059.22;4484203;31;20088;-76
2023/10/12 01:17:10;;;;;;;18.33;11.30;;;;;;;13.10;100.00;99055.50;4475623;32;20119;-76
2023/10/12 01:19:31;;;;;;;18.27;10.68;;;;;;;13.04;100.00;99056.91;4464552;32;20109;-76
2023/10/12 01:22:13;;;;;;;20.58;10.38;;;;;;;12.99;100.00;99042.53;4468272;32;20131;-76
2023/10/12 01:27:22;;;;;;;19.48;11.50;;;;;;;12.94;100.00;99046.47;4483898;31;20075;-76
2023/10/12 01:29:53;;;;;;;22.08;12.05;;;;;;;12.89;100.00;99051.31;4483937;31;20100;-76
2023/10/12 01:32:24;;;;;;;18.33;11.80;;;;;;;12.95;100.00;99044.66;4484178;31;20137;-76
2023/10/12 01:34:56;;;;;;;18.27;10.00;;;;;;;12.95;100.00;99037.56;4483938;31;20625;-76
2023/10/12 01:37:26;;;;;;;19.08;11.75;;;;;;;12.89;100.00;99043.41;4485323;31;20076;-76
2023/10/12 01:40:24;;;;;;;18.40;11.65;;;;;;;12.89;100.00;99040.78;4485862;31;20126;-76
2023/10/12 01:48:07;;;;;;;19.30;12.27;;;;;;;12.70;100.00;99039.09;4485758;31;20069;-76
2023/10/12 01:50:38;;;;;;;22.50;12.40;;;;;;;12.75;100.00;99038.66;4485840;31;20080;-76
2023/10/12 01:55:52;;;;;;;17.73;11.63;;;;;;;12.80;100.00;99041.66;4469929;32;20089;-76
2023/10/12 01:58:23;;;;;;;27.13;12.45;;;;;;;12.80;100.00;99035.59;4470256;32;20472;-76
2023/10/12 02:01:04;;;;;;;17.75;12.05;;;;;;;12.75;100.00;99042.09;4470098;32;20438;-76
2023/10/12 02:03:33;;;;;;;20.17;12.45;;;;;;;12.76;100.00;99045.53;4470007;32;20084;-76
2023/10/12 02:06:13;;;;;;;18.33;12.07;;;;;;;12.76;100.00;99042.91;4469987;32;20145;-76
2023/10/12 02:13:54;;;;;;;20.08;11.65;;;;;;;12.73;100.00;99041.41;4470098;32;20093;-76
2023/10/12 02:16:52;;;;;;;16.60;11.25;;;;;;;12.69;100.00;99044.47;4478055;32;20137;-76
2023/10/12 02:19:19;;;;;;;18.20;12.05;;;;;;;12.68;100.00;99042.81;4485821;31;20148;-76
2023/10/12 02:21:48;;;;;;;19.05;11.15;;;;;;;12.63;100.00;99045.03;4485639;31;20431;-76
2023/10/12 02:24:18;;;;;;;20.77;12.13;;;;;;;12.65;100.00;99043.09;4485801;31;20119;-76
2023/10/12 02:29:19;;;;;;;17.95;11.57;;;;;;;12.64;100.00;99046.69;4485568;31;20100;-76
2023/10/12 02:34:27;;;;;;;20.23;12.05;;;;;;;12.56;100.00;99044.78;4485421;31;20107;-76
2023/10/12 02:39:40;;;;;;;18.95;12.45;;;;;;;12.50;100.00;99035.66;4485504;31;20110;-76
2023/10/12 02:47:34;;;;;;;18.85;13.40;;;;;;;12.55;100.00;99040.50;4484381;31;20601;-76
2023/10/12 02:50:21;;;;;;;23.77;12.55;;;;;;;12.50;100.00;99034.84;4485463;31;20495;-76
2023/10/12 02:52:51;;;;;;;21.35;13.52;;;;;;;12.37;100.00;99030.75;4485212;32;20426;-76
2023/10/12 02:58:06;;;;;;;20.80;12.75;;;;;;;12.32;100.00;99032.13;4469550;32;20483;-76
2023/10/12 03:00:43;;;;;;;24.52;12.68;;;;;;;12.36;100.00;99033.50;4469853;32;20510;-76
2023/10/12 03:03:48;;;;;;;19.95;13.27;;;;;;;12.35;100.00;99026.59;4469653;32;20085;-76
2023/10/12 03:06:08;;;;;;;;;;;;;;;12.36;100.00;99028.25;4468717;32;20096;-76
2023/10/12 03:11:25;;;;;;;20.17;13.07;;;;;;;12.37;100.00;99030.75;4469585;32;20081;-76
2023/10/12 03:16:51;;;;;;;22.73;12.50;;;;;;;12.30;100.00;99023.56;4473973;32;20606;-76
2023/10/12 03:19:26;;;;;;;20.48;13.07;;;;;;;12.31;100.00;99030.47;4485030;31;20123;-77
2023/10/12 03:22:03;;;;;;;20.67;12.27;;;;;;;12.30;100.00;99026.19;4485319;31;20437;-76
2023/10/12 03:24:44;;;;;;;18.75;12.30;;;;;;;12.31;100.00;99036.56;4483709;32;20153;-76
2023/10/12 03:27:13;;;;;;;18.30;12.88;;;;;;;12.29;100.00;99033.22;4485215;31;20084;-76
2023/10/12 03:29:45;;;;;;;19.90;12.23;;;;;;;12.32;100.00;99038.19;4484859;31;20096;-76
2023/10/12 03:32:19;;;;;;;20.90;12.23;;;;;;;12.28;100.00;99036.84;4485459;31;20084;-76
2023/10/12 03:37:40;;;;;;;23.62;12.93;;;;;;;12.19;100.00;99027.19;4485118;32;20105;-76
2023/10/12 03:41:17;;;;;;;21.02;12.77;;;;;;;12.20;100.00;99029.66;4485073;31;20127;-76
2023/10/12 03:43:25;;;;;;;23.00;13.50;;;;;;;12.11;100.00;99025.25;4484923;31;20152;-76
2023/10/12 03:53:56;;;;;;;18.23;12.10;;;;;;;12.17;100.00;99023.84;4478541;31;20096;-76
2023/10/12 03:56:28;;;;;;;17.58;11.55;;;;;;;12.16;100.00;99017.78;4469484;32;20127;-76
2023/10/12 03:58:59;;;;;;;19.87;12.23;;;;;;;12.15;100.00;99020.56;4469139;32;20081;-77
2023/10/12 04:01:31;;;;;;;21.73;12.25;;;;;;;12.14;100.00;99019.72;4469255;32;20103;-77
2023/10/12 04:04:09;;;;;;;23.80;12.63;;;;;;;12.21;100.00;99023.44;4469222;32;20089;-76
2023/10/12 04:09:31;;;;;;;21.73;12.02;;;;;;;12.24;100.00;99015.25;4468559;32;20515;-76
2023/10/12 04:12:19;;;;;;;17.60;11.68;;;;;;;12.34;100.00;99017.87;4468712;32;20092;-77
2023/10/12 04:14:53;;;;;;;20.52;11.73;;;;;;;12.37;100.00;99019.38;4468935;32;20077;-77
2023/10/12 04:27:51;;;;;;;17.00;11.02;;;;;;;12.41;100.00;99018.13;4484820;31;20437;-75
2023/10/12 04:30:20;;;;;;;20.67;11.30;;;;;;;12.40;100.00;99014.69;4484425;31;20506;-76
2023/10/12 04:35:27;;;;;;;17.98;11.12;;;;;;;12.46;100.00;99013.28;4483835;31;20085;-77
2023/10/12 04:37:55;;;;;;;17.60;10.82;;;;;;;12.33;100.00;99004.88;4484677;31;20115;-77
2023/10/12 04:40:43;;;;;;;21.58;11.27;;;;;;;12.36;100.00;99002.78;4483824;31;20134;-76
2023/10/12 04:43:23;;;;;;;19.45;11.18;;;;;;;12.36;100.00;98994.91;4484267;31;20104;-76
2023/10/12 04:48:41;;;;;;;20.50;11.43;;;;;;;12.23;100.00;98999.66;4483155;32;20161;-75
2023/10/12 04:51:15;;;;;;;20.95;10.88;;;;;;;12.17;100.00;98998.44;4483297;32;20092;-76
2023/10/12 04:54:15;;;;;;;20.17;11.68;;;;;;;12.06;100.00;98999.41;4481472;31;20109;-77
2023/10/12 04:56:36;;;;;;;20.48;11.05;;;;;;;11.98;100.00;98998.47;4481829;32;20089;-78
2023/10/12 04:59:15;;;;;;;20.15;12.55;;;;;;;11.89;100.00;99010.59;4483658;31;20088;-76
2023/10/12 05:04:36;;;;;;;16.65;11.12;;;;;;;11.81;100.00;99021.81;4481697;32;20104;-77
2023/10/12 05:07:27;;;;;;;20.65;12.30;;;;;;;11.80;100.00;99030.63;4483669;32;20715;-77
2023/10/12 05:09:54;;;;;;;16.62;11.12;;;;;;;11.76;100.00;99025.81;4482643;31;20092;-76
2023/10/12 05:12:28;;;;;;;21.25;11.30;;;;;;;11.80;100.00;99033.25;4484862;31;20438;-77
2023/10/12 05:14:56;;;;;;;19.48;10.55;;;;;;;11.89;100.00;99032.41;4479785;31;20115;-78
2023/10/12 05:17:23;;;;;;;21.85;11.12;;;;;;;11.88;100.00;99033.41;4478900;31;20183;-77
2023/10/12 05:19:52;;;;;;;14.80;9.70;;;;;;;11.82;100.00;99041.81;4480936;31;20108;-77
2023/10/12 05:22:20;;;;;;;17.12;10.15;;;;;;;11.85;100.00;99035.47;4474192;32;20104;-77
2023/10/12 05:24:48;;;;;;;18.98;10.20;;;;;;;11.85;100.00;99038.94;4474071;31;20583;-77
2023/10/12 05:27:28;;;;;;;19.20;10.77;;;;;;;11.88;100.00;99030.78;4477126;32;20157;-77
2023/10/12 05:30:05;;;;;;;15.60;10.13;;;;;;;12.04;100.00;99024.16;4478698;31;20152;-77
2023/10/12 05:32:43;;;;;;;20.67;11.73;;;;;;;12.10;100.00;99023.59;4479189;32;21208;-77
2023/10/12 05:35:15;;;;;;;23.98;9.70;;;;;;;12.25;100.00;99026.63;4480080;32;20119;-78
2023/10/12 05:37:49;;;;;;;16.98;9.65;;;;;;;12.37;100.00;99011.50;4479053;32;20163;-77
2023/10/12 05:40:17;;;;;;;19.98;9.98;;;;;;;12.49;100.00;99022.66;4478311;32;20108;-77
2023/10/12 05:42:50;;;;;;;16.48;9.13;;;;;;;12.43;100.00;99013.59;4478672;32;20166;-77
2023/10/12 05:47:51;;;;;;;15.43;9.00;;;;;;;12.54;100.00;99028.34;4476692;31;20088;-77
2023/10/12 05:50:24;;;;;;;21.75;8.75;;;;;;;12.56;100.00;99029.84;4468586;32;20811;-77
2023/10/12 05:52:52;;;;;;;15.73;9.25;;;;;;;12.67;100.00;99035.91;4467787;32;20551;-77
2023/10/12 05:55:21;;;;;;;21.25;8.35;;;;;;;12.78;100.00;99033.91;4465999;32;20175;-76
2023/10/12 05:57:48;;;;;;;13.27;8.32;;;;;;;12.93;100.00;99026.37;4467871;31;20112;-78
2023/10/12 06:00:35;;;;;;;14.27;8.75;;;;;;;13.03;100.00;99028.94;4470015;32;20130;-76
2023/10/12 06:03:10;;;;;;;16.65;8.30;;;;;;;13.11;100.00;99029.06;4470999;32;20096;-77
2023/10/12 06:05:39;;;;;;;15.85;8.15;;;;;;;13.10;100.00;99026.59;4469334;31;20112;-76
2023/10/12 06:08:06;;;;;;;15.02;8.90;;;;;;;13.19;100.00;99022.25;4472274;31;20101;-79
2023/10/12 06:10:33;;;;;;;11.35;7.40;;;;;;;13.17;100.00;99030.28;4467150;32;20166;-77
2023/10/12 06:13:03;;;;;;;13.60;8.00;;;;;;;13.17;100.00;99039.97;4473897;31;20129;-77
2023/10/12 06:15:39;;;;;;;14.07;8.18;;;;;;;13.26;100.00;99039.91;4468546;32;20462;-77
2023/10/12 06:18:10;;;;;;;25.10;8.07;;;;;;;13.42;100.00;99049.00;4468545;32;20120;-78
2023/10/12 06:20:42;;;;;;;13.65;6.97;;;;;;;13.49;100.00;99052.69;4469647;32;20100;-78
2023/10/12 06:23:13;;;;;;;11.12;7.65;;;;;;;13.32;100.00;99052.47;4466697;32;20089;-76
2023/10/12 06:25:43;;;;;;;11.23;7.32;;;;;;;13.50;100.00;99049.06;4472563;32;20402;-79
2023/10/12 06:28:30;;;;;;;14.23;7.47;;;;;;;13.72;100.00;99052.25;4470560;32;20076;-76
2023/10/12 06:30:57;;;;;;;13.98;7.70;;;;;;;13.75;100.00;99058.03;4474629;31;20140;-76
2023/10/12 06:33:26;;;;;;;14.98;7.12;;;;;;;13.85;100.00;99055.31;4470482;32;20097;-76
2023/10/12 06:35:59;;;;;;;14.38;7.85;;;;;;;14.04;100.00;99056.16;4467808;32;20155;-77
2023/10/12 06:44:25;;;;;;;12.80;7.25;;;;;;;14.01;100.00;99066.00;4465526;32;20096;-78
2023/10/12 06:46:53;;;;;;;15.32;7.15;;;;;;;14.20;100.00;99064.16;4470373;32;20150;-75
2023/10/12 06:49:22;;;;;;;13.15;6.87;;;;;;;14.33;100.00;99055.87;4470457;32;21025;-77
2023/10/12 06:51:54;;;;;;;14.60;7.28;;;;;;;14.40;100.00;99050.78;4469845;31;20148;-77
2023/10/12 06:54:32;;;;;;;12.68;6.93;;;;;;;14.45;100.00;99057.25;4470238;32;20885;-81
2023/10/12 07:02:27;;;;;;;18.40;8.05;;;;;;;14.81;100.00;99059.00;4476366;31;20100;-79
2023/10/12 07:04:59;;;;;;;10.10;6.75;;;;;;;14.78;100.00;99048.75;4477756;32;20129;-77
2023/10/12 07:07:41;;;;;;;13.35;7.68;;;;;;;14.72;100.00;99051.03;4468165;32;20105;-77
2023/10/12 07:12:45;;;;;;;16.45;8.07;;;;;;;14.82;100.00;99060.62;4472838;32;20123;-77
2023/10/12 07:15:21;;;;;;;21.15;8.13;;;;;;;15.12;100.00;99072.47;4471618;32;20150;-77
2023/10/12 07:17:52;;;;;;;13.80;7.50;;;;;;;15.43;100.00;99064.84;4472769;32;20462;-77
2023/10/12 07:22:55;;;;;;;15.32;7.62;;;;;;;15.58;100.00;99069.50;4474305;32;20100;-77
2023/10/12 07:25:26;;;;;;;13.65;7.68;;;;;;;15.51;100.00;99064.03;4469489;32;20084;-77
2023/10/12 07:27:59;;;;;;;14.90;7.65;;;;;;;15.53;100.00;99064.69;4471911;32;20470;-79
2023/10/12 07:30:33;;;;;;;15.45;8.23;;;;;;;15.82;100.00;99059.97;4468254;32;20157;-79
2023/10/12 07:33:07;;;;;;;14.10;9.05;;;;;;;15.88;100.00;99061.97;4472782;32;20115;-79
2023/10/12 07:35:36;;;;;;;13.77;8.15;;;;;;;15.91;100.00;99061.63;4470575;32;20123;-79
2023/10/12 07:38:28;;;;;;;12.05;8.05;;;;;;;16.01;100.00;99057.03;4471861;32;20084;-77
2023/10/12 07:41:00;;;;;;;13.38;8.50;;;;;;;16.09;100.00;99059.69;4470050;32;20096;-73
2023/10/12 07:43:31;;;;;;;14.40;8.32;;;;;;;16.09;100.00;99061.47;4475112;32;20084;-78
2023/10/12 07:46:24;;;;;;;19.37;7.60;;;;;;;16.30;100.00;99051.22;4473285;32;20080;-81
2023/10/12 07:49:10;;;;;;;17.02;10.32;;;;;;;16.40;100.00;99048.41;4472464;32;20153;-80
2023/10/12 07:51:59;;;;;;;16.55;9.20;;;;;;;16.58;100.00;99042.91;4471919;32;20097;-81
2023/10/12 07:57:22;;;;;;;18.67;9.73;;;;;;;16.99;100.00;99047.28;4470136;32;20092;-78
2023/10/12 08:02:51;;;;;;;16.25;8.90;;;;;;;17.33;98.72;99052.25;4473027;32;20771;-78
2023/10/12 08:10:56;;;;;;;19.48;9.25;;;;;;;17.66;99.13;99045.94;4470796;32;20084;-77
2023/10/12 08:15:56;;;;;;;17.77;9.35;;;;;;;17.58;95.44;99054.78;4473188;32;20157;-80
2023/10/12 08:26:35;;;;;;;15.15;8.98;;;;;;;17.83;96.14;99034.19;4470833;32;20511;-79
2023/10/12 08:39:49;;;;;;;16.33;8.65;;;;;;;18.43;93.14;99045.00;4472740;32;20818;-79
2023/10/12 08:42:37;;;;;;;20.17;9.30;;;;;;;18.57;90.93;99044.19;4469060;32;20442;-80
2023/10/12 08:45:11;;;;;;;20.92;10.15;;;;;;;18.58;91.83;99042.38;4468991;32;20096;-80
2023/10/12 08:52:52;;;;;;;13.88;7.78;;;;;;;19.03;89.41;99048.53;4469691;32;20120;-82
2023/10/12 08:55:24;;;;;;;15.23;9.13;;;;;;;19.16;87.47;99039.88;4475262;32;20084;-82
2023/10/12 08:58:15;;;;;;;15.40;8.43;;;;;;;19.24;88.40;99041.59;4470104;32;20150;-82
2023/10/12 09:03:37;;;;;;;14.07;9.68;;;;;;;19.69;85.26;99036.97;4474893;32;20467;-79
2023/10/12 09:06:19;;;;;;;15.63;9.38;;;;;;;19.45;87.24;99030.19;4471594;32;20093;-81
2023/10/12 09:08:48;;;;;;;11.80;8.13;;;;;;;19.63;88.09;99033.25;4468240;32;20767;-79
2023/10/12 09:11:16;;;;;;;14.30;8.68;;;;;;;19.71;86.18;99037.59;4471208;32;20142;-77
2023/10/12 09:13:45;;;;;;;15.70;8.30;;;;;;;19.83;86.19;99032.63;4468444;32;20156;-77
2023/10/12 09:16:15;;;;;;;15.60;8.13;;;;;;;19.91;85.40;99029.88;4468438;32;20537;-78
2023/10/12 09:18:46;;;;;;;14.68;7.95;;;;;;;19.61;87.33;99035.28;4465920;32;20169;-78
2023/10/12 09:26:55;;;;;;;16.23;7.78;;;;;;;20.24;83.57;99029.28;4473769;31;20733;-77
2023/10/12 09:29:28;;;;;;;14.25;9.32;;;;;;;20.33;83.83;99029.97;4468558;32;20115;-77
2023/10/12 09:32:33;;;;;;;12.00;7.97;;;;;;;20.46;83.69;99038.06;4471362;32;20453;-78
2023/10/12 09:35:10;;;;;;;13.95;7.65;;;;;;;20.53;83.33;99038.09;4471012;32;20168;-81
2023/10/12 09:37:52;;;;;;;12.07;7.97;;;;;;;20.40;85.22;99030.84;4467075;32;20600;-81
2023/10/12 09:40:38;;;;;;;21.12;9.30;;;;;;;20.29;86.04;99024.22;4466823;32;20100;-80
2023/10/12 09:43:14;;;;;;;16.20;7.20;;;;;;;20.31;86.97;99024.84;4470426;32;20136;-81
2023/10/12 09:45:44;;;;;;;15.98;8.15;;;;;;;20.74;84.35;99030.06;4469377;32;20467;-81
2023/10/12 09:48:19;;;;;;;16.67;7.68;;;;;;;20.87;83.86;99029.31;4468219;32;20544;-80
2023/10/12 09:50:50;;;;;;;21.17;8.27;;;;;;;20.99;83.56;99026.09;4468836;32;20161;-80
2023/10/12 09:53:30;;;;;;;10.20;7.45;;;;;;;20.82;82.11;99017.63;4473597;31;20092;-78
2023/10/12 09:56:11;;;;;;;19.10;8.48;;;;;;;20.68;85.82;99017.56;4464144;32;20142;-79
2023/10/12 09:58:51;;;;;;;12.70;8.00;;;;;;;20.98;85.37;99022.59;4468927;32;20088;-76
2023/10/12 10:06:53;;;;;;;;;;;;;;;21.40;81.47;99020.69;4415382;32;20601;-80
2023/10/12 10:09:37;;;;;;;13.43;7.53;;;;;;;21.61;80.28;99025.06;4427242;32;19981;-77
2023/10/12 10:12:08;;;;;;;12.23;7.75;;;;;;;21.62;81.71;99016.06;4428908;32;20098;-77
2023/10/12 10:14:44;;;;;;;12.57;7.55;;;;;;;21.88;79.80;99021.62;4425192;32;20132;-80
2023/10/12 10:17:14;;;;;;;13.70;6.93;;;;;;;21.96;78.57;99019.56;4427123;32;20120;-78
2023/10/12 10:19:51;;;;;;;19.55;8.23;;;;;;;21.95;78.14;99022.44;4426176;32;20645;-79
2023/10/12 10:22:21;;;;;;;15.00;7.12;;;;;;;21.99;76.98;99007.66;4426756;32;20499;-79
2023/10/12 10:24:55;;;;;;;14.98;8.07;;;;;;;22.12;78.84;99010.34;4419401;32;20113;-79
2023/10/12 10:27:34;;;;;;;15.63;8.27;;;;;;;22.30;78.11;99008.88;4423688;32;20113;-79
2023/10/12 10:30:36;;;;;;;12.43;6.97;;;;;;;22.40;77.94;99009.28;4429626;32;20105;-78
2023/10/12 10:33:13;;;;;;;13.70;8.05;;;;;;;22.66;78.17;99010.28;4427295;32;20097;-75
2023/10/12 10:36:10;;;;;;;12.70;7.65;;;;;;;22.68;75.39;99008.22;4426357;32;20114;-78
2023/10/12 10:38:53;;;;;;;13.05;7.78;;;;;;;22.89;77.64;99004.44;4430072;32;20211;-78
2023/10/12 10:44:21;;;;;;;14.68;8.13;;;;;;;23.10;75.94;98989.97;4466104;31;20132;-80
2023/10/12 10:46:57;;;;;;;15.65;7.68;;;;;;;22.94;76.59;98985.13;4472444;31;20165;-79
2023/10/12 10:49:33;;;;;;;16.55;7.47;;;;;;;23.08;75.91;98988.53;4475354;32;20453;-84
2023/10/12 10:54:39;;;;;;;15.45;7.70;;;;;;;23.32;75.80;98984.34;4476534;32;20096;-78
2023/10/12 10:57:15;;;;;;;16.50;8.33;;;;;;;23.35;74.64;98991.94;4474705;31;20118;-81
2023/10/12 10:59:46;;;;;;;17.85;7.18;;;;;;;22.86;75.60;98987.00;4477503;31;20184;-79
2023/10/12 11:02:15;;;;;;;16.58;8.18;;;;;;;22.66;77.24;98980.88;4475420;31;20100;-79
2023/10/12 11:04:46;;;;;;;11.00;8.10;;;;;;;23.10;77.88;98981.16;4478187;31;20100;-79
2023/10/12 11:07:17;;;;;;;15.63;7.70;;;;;;;22.92;76.58;98976.47;4476655;32;20131;-78
2023/10/12 11:12:23;;;;;;;15.75;7.75;;;;;;;23.31;78.04;98986.16;4476351;32;20092;-80
2023/10/12 11:15:01;;;;;;;26.73;8.32;;;;;;;23.48;74.85;98981.16;4473453;32;20381;-81
2023/10/12 11:17:35;;;;;;;19.37;7.87;;;;;;;23.66;75.16;98976.91;4471102;32;20127;-80
2023/10/12 11:20:18;;;;;;;11.32;7.80;;;;;;;23.56;75.17;98972.84;4466920;32;20147;-82
2023/10/12 11:22:45;;;;;;;12.43;7.40;;;;;;;23.44;74.70;98968.41;4469851;32;20088;-83
2023/10/12 11:25:15;;;;;;;13.13;7.47;;;;;;;23.54;75.24;98968.75;4474782;32;20096;-80
2023/10/12 11:27:44;;;;;;;12.15;8.30;;;;;;;23.40;76.25;98962.69;4469712;32;20179;-79
2023/10/12 11:30:19;;;;;;;15.07;7.00;;;;;;;23.55;75.87;98965.06;4472019;32;20097;-79
2023/10/12 11:32:53;;;;;;;11.05;7.15;;;;;;;23.51;74.72;98963.84;4476459;31;20104;-80
2023/10/12 11:35:43;;;;;;;16.15;8.20;;;;;;;23.54;75.36;98952.72;4469782;32;20140;-81
2023/10/12 11:38:15;;;;;;;15.00;7.05;;;;;;;23.67;74.82;98952.59;4470803;32;20088;-80
2023/10/12 11:40:52;;;;;;;12.15;7.10;;;;;;;23.95;74.82;98950.56;4470845;32;20153;-78
2023/10/12 11:43:21;;;;;;;13.43;7.07;;;;;;;24.11;74.36;98952.69;4469004;32;20091;-78
2023/10/12 11:46:06;;;;;;;13.65;7.35;;;;;;;23.75;73.11;98954.19;4480376;31;20124;-78
2023/10/12 11:48:36;;;;;;;12.13;6.75;;;;;;;23.66;73.57;98950.16;4471932;31;20247;-78
2023/10/12 11:51:12;;;;;;;14.00;7.45;;;;;;;23.77;74.04;98957.50;4472685;31;20095;-76
2023/10/12 11:53:41;;;;;;;16.98;7.20;;;;;;;23.91;73.31;98947.53;4475167;32;20239;-77
2023/10/12 11:56:17;;;;;;;15.00;6.57;;;;;;;24.07;73.60;98955.00;4475857;31;20101;-76
2023/10/12 11:58:53;;;;;;;12.50;7.60;;;;;;;24.17;71.35;98945.62;4474658;32;20088;-77
2023/10/12 12:01:22;;;;;;;14.85;6.95;;;;;;;24.33;73.67;98938.84;4482863;32;20118;-77
2023/10/12 12:03:54;;;;;;;13.60;6.45;;;;;;;24.17;71.11;98941.09;4471376;32;20092;-75
2023/10/12 12:06:22;;;;;;;19.45;7.50;;;;;;;24.00;72.18;98935.50;4481819;31;20096;-76
2023/10/12 12:08:51;;;;;;;10.73;6.28;;;;;;;23.90;72.85;98933.28;4482423;32;20096;-76
2023/10/12 12:11:20;;;;;;;11.73;6.62;;;;;;;24.21;72.91;98926.22;4483792;31;20105;-77
2023/10/12 12:13:48;;;;;;;13.02;6.80;;;;;;;24.42;73.29;98932.16;4481294;31;20105;-77
2023/10/12 12:16:20;;;;;;;12.15;6.93;;;;;;;24.45;70.34;98931.72;4481138;31;20119;-79
2023/10/12 12:18:52;;;;;;;15.82;6.72;;;;;;;24.21;70.89;98920.88;4481229;31;20118;-78
2023/10/12 12:21:33;;;;;;;;;;;;;;;24.35;71.60;98931.44;4477081;32;20088;-77
2023/10/12 12:26:51;;;;;;;17.02;6.15;;;;;;;24.54;69.11;98922.34;4483141;31;20119;-78
2023/10/12 12:29:26;;;;;;;15.40;6.28;;;;;;;24.75;69.10;98920.25;4477553;31;20138;-79
2023/10/12 12:32:04;;;;;;;16.62;6.20;;;;;;;24.78;70.33;98909.94;4476389;32;20119;-77
2023/10/12 12:34:51;;;;;;;14.77;7.00;;;;;;;24.95;70.55;98909.28;4475685;32;20096;-80
2023/10/12 12:37:22;;;;;;;14.57;6.60;;;;;;;25.05;70.13;98917.59;4482952;32;20539;-80
2023/10/12 12:40:27;;;;;;;12.00;6.50;;;;;;;25.26;69.78;98915.44;4478064;32;20483;-81
2023/10/12 12:42:41;;;;;;;17.45;7.28;;;;;;;25.30;69.78;98908.63;4480264;32;20149;-79
2023/10/12 12:45:09;;;;;;;10.43;6.50;;;;;;;25.18;69.59;98900.50;4484710;31;20880;-78
2023/10/12 12:47:37;;;;;;;17.42;6.87;;;;;;;25.19;69.13;98902.13;4484256;31;20176;-81
2023/10/12 12:50:08;;;;;;;15.88;6.68;;;;;;;25.21;69.35;98892.00;4484093;31;20169;-79
2023/10/12 12:52:40;;;;;;;12.60;6.45;;;;;;;25.38;69.71;98877.97;4476965;31;20111;-79
2023/10/12 12:55:11;;;;;;;12.48;6.87;;;;;;;25.44;68.27;98880.53;4476701;32;20161;-77
2023/10/12 12:57:42;;;;;;;16.45;6.62;;;;;;;25.25;68.79;98881.63;4479990;32;20093;-78
2023/10/12 13:00:11;;;;;;;15.02;6.28;;;;;;;25.37;68.49;98874.44;4484147;32;20533;-78
2023/10/12 13:02:38;;;;;;;15.93;6.65;;;;;;;25.39;67.42;98879.56;4483830;31;20096;-77
2023/10/12 13:05:07;;;;;;;10.90;5.65;;;;;;;25.46;69.05;98873.06;4483326;31;20112;-78
2023/10/12 13:07:35;;;;;;;13.60;6.37;;;;;;;25.51;69.37;98875.03;4470228;31;20158;-77
2023/10/12 13:10:08;;;;;;;15.18;7.00;;;;;;;25.55;69.15;98870.84;4481955;32;20396;-79
2023/10/12 13:12:43;;;;;;;12.40;6.50;;;;;;;25.52;68.82;98871.31;4483752;31;20092;-77
2023/10/12 13:15:14;;;;;;;14.45;6.75;;;;;;;25.72;68.73;98868.28;4483384;31;20098;-78
2023/10/12 13:17:42;;;;;;;16.65;6.22;;;;;;;25.48;66.24;98862.09;4479284;32;20127;-75
2023/10/12 13:20:18;;;;;;;15.13;6.45;;;;;;;25.33;66.82;98859.88;4483861;31;20362;-74
2023/10/12 13:22:49;;;;;;;13.85;6.05;;;;;;;25.47;67.39;98863.97;4483086;31;20092;-74
2023/10/12 13:25:19;;;;;;;16.15;6.10;;;;;;;25.50;66.77;98870.75;4484027;31;20076;-74
2023/10/12 13:27:49;;;;;;;17.25;6.32;;;;;;;25.69;67.55;98871.44;4484238;31;20401;-76
2023/10/12 13:30:17;;;;;;;12.65;5.80;;;;;;;25.72;67.13;98875.53;4473519;31;20454;-76
2023/10/12 13:32:48;;;;;;;16.90;6.25;;;;;;;25.73;65.36;98871.81;4484477;31;20105;-77
2023/10/12 13:38:10;;;;;;;16.90;6.32;;;;;;;25.73;65.29;98863.75;4451368;32;20837;-76
2023/10/12 13:40:46;;;;;;;13.85;6.43;;;;;;;25.83;66.94;98870.16;4451779;32;20167;-76
2023/10/12 13:43:22;;;;;;;12.13;6.05;;;;;;;25.88;66.69;98864.09;4451563;32;20120;-76
2023/10/12 13:45:52;;;;;;;16.15;6.25;;;;;;;25.91;65.83;98866.31;4451735;32;20396;-76
2023/10/12 13:48:27;;;;;;;18.65;6.60;;;;;;;25.91;67.68;98850.19;4451266;32;20105;-76
2023/10/12 13:51:08;;;;;;;12.10;6.07;;;;;;;25.99;66.45;98855.22;4450988;32;20155;-76
2023/10/12 13:53:37;;;;;;;17.10;6.30;;;;;;;25.62;67.68;98847.41;4451004;32;20084;-76
2023/10/12 13:56:08;;;;;;;10.93;5.75;;;;;;;25.73;67.52;98851.16;4448998;32;20089;-77
2023/10/12 13:58:38;;;;;;;16.00;6.50;;;;;;;25.89;67.00;98838.88;4448439;32;20094;-76
2023/10/12 14:01:14;;;;;;;13.40;6.53;;;;;;;26.06;67.31;98839.00;4434125;32;20178;-76
2023/10/12 14:03:55;;;;;;;11.82;6.47;;;;;;;25.99;66.40;98831.06;4450078;32;20488;-75
2023/10/12 14:06:27;;;;;;;10.73;6.32;;;;;;;25.99;65.03;98833.75;4451417;32;20570;-78
2023/10/12 14:08:58;;;;;;;13.82;6.25;;;;;;;26.05;65.76;98829.31;4450527;32;20109;-75
2023/10/12 14:11:26;;;;;;;13.65;6.07;;;;;;;26.06;66.27;98830.13;4451016;32;20172;-76
2023/10/12 14:13:53;;;;;;;19.20;6.60;;;;;;;26.13;66.12;98833.50;4455697;32;20161;-78
2023/10/12 14:16:21;;;;;;;18.42;5.50;;;;;;;26.18;63.78;98830.94;4477545;31;20127;-77
2023/10/12 14:18:49;;;;;;;12.37;6.25;;;;;;;26.15;64.25;98826.84;4484184;31;20483;-78
2023/10/12 14:21:19;;;;;;;11.27;5.22;;;;;;;26.07;63.12;98835.25;4485621;31;20123;-78
2023/10/12 14:23:48;;;;;;;10.43;5.10;;;;;;;26.01;63.70;98831.66;4485279;31;20148;-78
2023/10/12 14:26:17;;;;;;;14.60;6.40;;;;;;;26.19;63.43;98833.38;4484943;31;20604;-78
2023/10/12 14:28:50;;;;;;;15.48;6.05;;;;;;;26.23;63.36;98835.59;4484866;31;20103;-78
2023/10/12 14:31:23;;;;;;;12.13;5.47;;;;;;;25.96;62.38;98834.19;4483909;31;20119;-78
2023/10/12 14:33:52;;;;;;;11.98;6.00;;;;;;;26.02;63.41;98833.28;4483528;31;20191;-78
2023/10/12 14:36:23;;;;;;;11.57;5.53;;;;;;;25.98;63.93;98828.59;4484727;31;20092;-78
2023/10/12 14:38:55;;;;;;;11.88;5.28;;;;;;;25.89;64.38;98821.94;4484354;31;20100;-78